KBYI/BYI METAR and TAF weather

Enter ICAO airport designator
Station Type Date Time Source
KBYI METAR 2018/12/10 18:53 UTC NOAA

KBYI 101853Z AUTO 16003KT 10SM CLR 00/M04 A3021 RMK AO2 SLP252 T00001039


Station Type Date Time Source
KBYI Decoded METAR 2018/12/10 18:53 UTC NOAA

BURLEY MUNICIPAL AIRPORT, ID, United States (KBYI) 42-33N 113-46W 1264M
Dec 10, 2018 - 01:53 PM EST / 2018.12.10 1853 UTC
Wind: from the SSE (160 degrees) at 3 MPH (3 KT):0
Visibility: 10 mile(s):0
Sky conditions: clear
Temperature: 32.0 F (0.0 C)
Dew Point: 25.0 F (-3.9 C)
Relative Humidity: 74%
Pressure (altimeter): 30.21 in. Hg (1023 hPa)
ob: KBYI 101853Z AUTO 16003KT 10SM CLR 00/M04 A3021 RMK AO2 SLP252 T00001039
cycle: 19

Station Type Date Time Source
KBYI TAF 2018/12/10 18:28 UTC NOAA

TAF KBYI 101726Z 1018/1118 VRB05KT P6SM OVC120
FM102100 26006KT P6SM SCT080 OVC110
FM110200 27006KT 4SM -SN BR BKN010 OVC025
FM110900 25010KT P6SM OVC035


Example: see airport list